Time;durP1;ratioP1;P1;durP2;ratioP2;P2;SDS_P1;SDS_P2;PMS_P1;PMS_P2;Temp;Humidity;BMP_temperature;BMP_pressure;BME280_temperature;BME280_humidity;BME280_pressure;Samples;Min_cycle;Max_cycle;Signal;HPM_P1;HPM_P2
2021/11/25 00:00:53;;;;;;;;;;;1.20;99.90;;;;;;8431333;28;19915;-65
2021/11/25 00:04:53;;;;;;;;;;;1.30;99.90;;;;;;8431244;28;19908;-65
2021/11/25 00:08:54;;;;;;;;;;;1.30;99.90;;;;;;8431111;28;20374;-65
2021/11/25 00:12:55;;;;;;;;;;;1.20;99.90;;;;;;8430374;28;20377;-66
2021/11/25 00:16:55;;;;;;;;;;;1.20;99.90;;;;;;8430783;28;20293;-65
2021/11/25 00:21:10;;;;;;;;;;;1.20;99.90;;;;;;8431126;28;19999;-65
2021/11/25 00:25:11;;;;;;;;;;;1.30;99.90;;;;;;8430014;28;19991;-65
2021/11/25 00:29:11;;;;;;;;;;;1.40;99.90;;;;;;8421862;28;19912;-65
2021/11/25 00:33:12;;;;;;;;;;;1.50;99.90;;;;;;8430152;28;20404;-65
2021/11/25 00:37:12;;;;;;;;;;;1.50;99.90;;;;;;8430430;28;19923;-65
2021/11/25 00:41:13;;;;;;;;;;;1.40;99.90;;;;;;8430123;28;19908;-65
2021/11/25 00:45:14;;;;;;;;;;;1.20;99.90;;;;;;8411534;28;19908;-65
2021/11/25 00:49:14;;;;;;;;;;;1.10;99.90;;;;;;8429960;28;19912;-67
2021/11/25 00:53:15;;;;;;;;;;;1.00;99.90;;;;;;8429560;28;19916;-65
2021/11/25 00:57:15;;;;;;;;;;;1.00;99.90;;;;;;8420297;28;19920;-65
2021/11/25 01:01:16;;;;;;;;;;;1.10;99.90;;;;;;8429488;28;19908;-65
2021/11/25 01:05:17;;;;;;;;;;;1.10;99.90;;;;;;8429392;28;20278;-65
2021/11/25 01:09:17;;;;;;;;;;;0.90;99.90;;;;;;8410993;28;19974;-65
2021/11/25 01:13:17;;;;;;;;;;;1.20;99.90;;;;;;8428968;28;19912;-65
2021/11/25 01:17:18;;;;;;;;;;;1.10;99.90;;;;;;8429084;28;19995;-65
2021/11/25 01:21:18;;;;;;;;;;;1.10;99.90;;;;;;8410978;28;19908;-65
2021/11/25 01:25:19;;;;;;;;;;;1.00;99.90;;;;;;8426100;28;19963;-65
2021/11/25 01:29:19;;;;;;;;;;;1.00;99.90;;;;;;8421174;28;19916;-65
2021/11/25 01:33:20;;;;;;;;;;;0.90;99.90;;;;;;8428290;28;20381;-65
2021/11/25 01:37:23;;;;;;;;;;;0.90;99.90;;;;;;8428369;28;19908;-65
2021/11/25 01:41:24;;;;;;;;;;;0.90;99.90;;;;;;8428211;28;19954;-66
2021/11/25 01:45:25;;;;;;;;;;;0.70;99.90;;;;;;8427407;28;20002;-65
2021/11/25 01:49:59;;;;;;;;;;;0.60;99.90;;;;;;8420355;28;19912;-65
2021/11/25 01:54:00;;;;;;;;;;;0.70;99.90;;;;;;8392254;28;20333;-65
2021/11/25 01:58:01;;;;;;;;;;;0.90;99.90;;;;;;8394873;28;20137;-65
2021/11/25 02:02:05;;;;;;;;;;;0.70;99.90;;;;;;8376229;28;20424;-65
2021/11/25 02:06:06;;;;;;;;;;;0.50;99.90;;;;;;8394152;28;19909;-65
2021/11/25 02:10:07;;;;;;;;;;;0.80;99.90;;;;;;8393556;28;19912;-65
2021/11/25 02:14:07;;;;;;;;;;;0.80;99.90;;;;;;8393766;28;19916;-65
2021/11/25 02:18:09;;;;;;;;;;;0.80;99.90;;;;;;8393737;28;20390;-66
2021/11/25 02:22:10;;;;;;;;;;;0.70;99.90;;;;;;8399726;28;19958;-65
2021/11/25 02:26:10;;;;;;;;;;;0.80;99.90;;;;;;8393734;28;19908;-65
2021/11/25 02:30:12;;;;;;;;;;;0.70;99.90;;;;;;8393157;28;19963;-65
2021/11/25 02:34:12;;;;;;;;;;;0.60;99.90;;;;;;8393528;28;19966;-65
2021/11/25 02:38:13;;;;;;;;;;;0.60;99.90;;;;;;8392957;28;20370;-65
2021/11/25 02:42:15;;;;;;;;;;;0.60;99.90;;;;;;8393215;28;19913;-65
2021/11/25 02:46:16;;;;;;;;;;;0.80;99.90;;;;;;8375109;28;19919;-65
2021/11/25 02:50:17;;;;;;;;;;;0.70;99.90;;;;;;8392780;28;19913;-65
2021/11/25 02:54:18;;;;;;;;;;;0.50;99.90;;;;;;8399316;28;19916;-65
2021/11/25 02:58:18;;;;;;;;;;;0.60;99.90;;;;;;8392997;28;20393;-65
2021/11/25 03:02:19;;;;;;;;;;;0.50;99.90;;;;;;8374857;28;19935;-65
2021/11/25 03:06:19;;;;;;;;;;;0.50;99.90;;;;;;8392864;28;19912;-65
2021/11/25 03:10:20;;;;;;;;;;;0.60;99.90;;;;;;8392459;28;20025;-65
2021/11/25 03:14:21;;;;;;;;;;;0.60;99.90;;;;;;8392783;28;20381;-65
2021/11/25 03:22:59;;;;;;;;;;;0.50;99.90;;;;;;8404052;28;19925;-66
2021/11/25 03:31:38;;;;;;;;;;;0.40;99.90;;;;;;8401691;28;19966;-66
2021/11/25 03:35:39;;;;;;;;;;;0.40;99.90;;;;;;8415950;28;19994;-65
2021/11/25 03:39:39;;;;;;;;;;;0.60;99.90;;;;;;8407489;28;19908;-66
2021/11/25 03:43:39;;;;;;;;;;;0.60;99.90;;;;;;8425725;28;19958;-65
2021/11/25 03:47:45;;;;;;;;;;;0.50;99.90;;;;;;8407534;28;19908;-65
2021/11/25 03:51:45;;;;;;;;;;;0.50;99.90;;;;;;8431096;28;19978;-65
2021/11/25 03:55:46;;;;;;;;;;;0.40;99.90;;;;;;8453801;22;19933;-66
2021/11/25 03:59:46;;;;;;;;;;;0.30;99.90;;;;;;8413015;28;19908;-66
2021/11/25 04:04:21;;;;;;;;;;;0.40;99.90;;;;;;8423459;28;19931;-66
2021/11/25 04:08:22;;;;;;;;;;;0.40;99.90;;;;;;8388629;28;19908;-66
2021/11/25 04:12:22;;;;;;;;;;;0.30;99.90;;;;;;8423527;28;19916;-66
2021/11/25 04:16:23;;;;;;;;;;;0.30;99.90;;;;;;8431064;28;20067;-66
2021/11/25 04:20:23;;;;;;;;;;;0.50;99.90;;;;;;8430825;28;19908;-66
2021/11/25 04:24:24;;;;;;;;;;;0.60;99.90;;;;;;8430593;28;19954;-66
2021/11/25 04:28:24;;;;;;;;;;;0.70;99.90;;;;;;8430321;28;19954;-66
2021/11/25 04:36:44;;;;;;;;;;;0.60;99.90;;;;;;8399713;28;19919;-66
2021/11/25 04:41:03;;;;;;;;;;;0.50;99.90;;;;;;8405714;28;19913;-66
2021/11/25 04:45:04;;;;;;;;;;;0.60;99.90;;;;;;8377916;28;20609;-67
2021/11/25 04:49:05;;;;;;;;;;;0.50;99.90;;;;;;8362894;28;20413;-67
2021/11/25 04:53:07;;;;;;;;;;;0.50;99.90;;;;;;8377636;28;19913;-66
2021/11/25 04:57:07;;;;;;;;;;;0.50;99.90;;;;;;8375139;28;19923;-66
2021/11/25 05:05:46;;;;;;;;;;;0.40;99.90;;;;;;8376704;28;19966;-66
2021/11/25 05:14:24;;;;;;;;;;;0.70;99.90;;;;;;8379485;28;20353;-66
2021/11/25 05:23:15;;;;;;;;;;;0.80;99.90;;;;;;8387730;28;19958;-66
2021/11/25 05:27:16;;;;;;;;;;;0.80;99.90;;;;;;8396588;28;20390;-66
2021/11/25 05:31:17;;;;;;;;;;;0.80;99.90;;;;;;8383298;28;19963;-66
2021/11/25 05:39:55;;;;;;;;;;;0.60;99.90;;;;;;8391855;28;19919;-66
2021/11/25 05:43:56;;;;;;;;;;;0.80;99.90;;;;;;8384842;28;19948;-67
2021/11/25 05:47:56;;;;;;;;;;;0.80;99.90;;;;;;8396718;28;19965;-67
2021/11/25 05:51:57;;;;;;;;;;;0.60;99.90;;;;;;8376554;28;20113;-67
2021/11/25 05:55:57;;;;;;;;;;;0.70;99.90;;;;;;8377014;28;19916;-67
2021/11/25 05:59:57;;;;;;;;;;;0.50;99.90;;;;;;8371715;28;20005;-67
2021/11/25 06:03:58;;;;;;;;;;;0.70;99.90;;;;;;8393414;28;20263;-67
2021/11/25 06:08:02;;;;;;;;;;;0.80;99.90;;;;;;8393428;28;19908;-66
2021/11/25 06:16:41;;;;;;;;;;;0.80;99.90;;;;;;8384301;28;20451;-66
2021/11/25 06:20:41;;;;;;;;;;;1.00;99.90;;;;;;8413372;28;19908;-66
2021/11/25 06:24:42;;;;;;;;;;;0.80;99.90;;;;;;8385447;28;19913;-66
2021/11/25 06:28:42;;;;;;;;;;;0.60;99.90;;;;;;8360178;28;20008;-67
2021/11/25 06:32:44;;;;;;;;;;;0.50;99.90;;;;;;8359902;28;20004;-66
2021/11/25 06:36:45;;;;;;;;;;;0.50;99.90;;;;;;8362789;28;19913;-66
2021/11/25 06:40:46;;;;;;;;;;;0.60;99.90;;;;;;8359914;28;19909;-66
2021/11/25 06:49:24;;;;;;;;;;;0.60;99.90;;;;;;8404648;28;19958;-66
2021/11/25 06:53:26;;;;;;;;;;;0.80;99.90;;;;;;8387731;28;19909;-66
2021/11/25 06:57:26;;;;;;;;;;;1.70;99.90;;;;;;8398265;28;19916;-66
2021/11/25 07:01:27;;;;;;;;;;;1.20;99.90;;;;;;8378642;28;19947;-66
2021/11/25 07:05:28;;;;;;;;;;;1.00;99.90;;;;;;8392600;28;19916;-67
2021/11/25 07:09:28;;;;;;;;;;;0.80;99.90;;;;;;8392566;28;19963;-67
2021/11/25 07:18:07;;;;;;;;;;;0.50;99.90;;;;;;8369255;28;19943;-67
2021/11/25 07:22:07;;;;;;;;;;;0.50;99.90;;;;;;8366389;28;19916;-67
2021/11/25 07:26:08;;;;;;;;;;;0.60;99.90;;;;;;8378521;28;19936;-66
2021/11/25 07:30:10;;;;;;;;;;;0.60;99.90;;;;;;8397095;28;19966;-66
2021/11/25 07:34:11;;;;;;;;;;;0.90;99.90;;;;;;8397250;28;20361;-66
2021/11/25 07:38:11;;;;;;;;;;;1.00;99.90;;;;;;8393723;28;20244;-67
2021/11/25 07:42:12;;;;;;;;;;;0.90;99.90;;;;;;8365185;28;19948;-67
2021/11/25 07:46:13;;;;;;;;;;;0.90;99.90;;;;;;8393009;28;19909;-67
2021/11/25 07:50:14;;;;;;;;;;;0.80;99.90;;;;;;8379265;28;19913;-67
2021/11/25 07:54:15;;;;;;;;;;;1.00;99.90;;;;;;8397637;28;19919;-66
2021/11/25 07:58:15;;;;;;;;;;;1.10;99.90;;;;;;8397751;28;19919;-67
2021/11/25 08:02:17;;;;;;;;;;;1.20;99.90;;;;;;8379232;28;19920;-67
2021/11/25 08:06:17;;;;;;;;;;;1.10;99.90;;;;;;8397355;28;20405;-67
2021/11/25 08:10:18;;;;;;;;;;;1.10;99.90;;;;;;8397039;28;19916;-67
2021/11/25 08:14:18;;;;;;;;;;;1.10;99.90;;;;;;8400801;28;19909;-67
2021/11/25 08:18:19;;;;;;;;;;;1.30;99.90;;;;;;8393011;28;20605;-67
2021/11/25 08:22:20;;;;;;;;;;;1.40;99.90;;;;;;8378431;28;19912;-67
2021/11/25 08:26:20;;;;;;;;;;;1.40;99.90;;;;;;8397012;28;19916;-67
2021/11/25 08:30:22;;;;;;;;;;;1.30;99.90;;;;;;8396256;28;19913;-67
2021/11/25 08:34:23;;;;;;;;;;;1.40;99.90;;;;;;8378092;28;19909;-67
2021/11/25 08:38:24;;;;;;;;;;;1.50;99.90;;;;;;8378410;28;19909;-67
2021/11/25 08:42:24;;;;;;;;;;;1.70;99.90;;;;;;8396250;28;20444;-67
2021/11/25 08:46:25;;;;;;;;;;;1.70;99.90;;;;;;8379936;28;20118;-67
2021/11/25 08:50:27;;;;;;;;;;;1.70;99.90;;;;;;8391963;28;20367;-66
2021/11/25 08:54:27;;;;;;;;;;;1.80;99.90;;;;;;8395387;28;19943;-66
2021/11/25 08:58:28;;;;;;;;;;;1.70;99.90;;;;;;8423439;28;19912;-66
2021/11/25 09:02:28;;;;;;;;;;;1.70;99.90;;;;;;8411258;28;19912;-67
2021/11/25 09:06:29;;;;;;;;;;;1.60;99.90;;;;;;8429190;28;19951;-66
2021/11/25 09:10:29;;;;;;;;;;;1.40;99.90;;;;;;8428980;28;19955;-66
2021/11/25 09:14:30;;;;;;;;;;;1.40;99.90;;;;;;8428937;28;19953;-66
2021/11/25 09:18:30;;;;;;;;;;;1.70;99.90;;;;;;8381620;28;19956;-66
2021/11/25 09:22:31;;;;;;;;;;;1.80;99.90;;;;;;8394726;28;20505;-66
2021/11/25 09:26:32;;;;;;;;;;;1.60;99.90;;;;;;8395153;28;19916;-66
2021/11/25 09:30:33;;;;;;;;;;;1.70;99.90;;;;;;8394553;28;19913;-66
2021/11/25 09:34:33;;;;;;;;;;;1.70;99.90;;;;;;8395007;28;19915;-66
2021/11/25 09:38:34;;;;;;;;;;;1.60;99.90;;;;;;8373419;28;19912;-66
2021/11/25 09:42:36;;;;;;;;;;;1.90;99.90;;;;;;8361576;28;20367;-66
2021/11/25 09:46:37;;;;;;;;;;;1.80;99.90;;;;;;8360269;28;19978;-66
2021/11/25 09:50:39;;;;;;;;;;;1.70;99.90;;;;;;8368137;28;19916;-66
2021/11/25 09:54:39;;;;;;;;;;;1.60;99.90;;;;;;8436319;22;20011;-64
2021/11/25 09:58:40;;;;;;;;;;;1.60;99.90;;;;;;8420265;28;20298;-64
2021/11/25 10:02:40;;;;;;;;;;;1.80;99.90;;;;;;8409227;28;19998;-64
2021/11/25 10:06:52;;;;;;;;;;;2.00;99.90;;;;;;8427114;28;19920;-64
2021/11/25 10:10:57;;;;;;;;;;;2.10;99.90;;;;;;8427176;28;20408;-64
2021/11/25 10:14:59;;;;;;;;;;;2.10;99.90;;;;;;8395165;28;20362;-64
2021/11/25 10:19:09;;;;;;;;;;;2.20;99.90;;;;;;8360892;28;19909;-64
2021/11/25 10:23:14;;;;;;;;;;;2.30;99.90;;;;;;8380118;28;19909;-64
2021/11/25 10:27:17;;;;;;;;;;;2.20;99.90;;;;;;8360346;28;19936;-64
2021/11/25 10:31:19;;;;;;;;;;;2.10;99.90;;;;;;8359269;28;19966;-64
2021/11/25 10:35:30;;;;;;;;;;;2.10;99.90;;;;;;8360163;28;19921;-64
2021/11/25 10:43:33;;;;;;;;;;;2.30;99.90;;;;;;8360133;28;19908;-64
2021/11/25 10:47:33;;;;;;;;;;;2.40;99.90;;;;;;8360163;28;19908;-64
2021/11/25 10:51:35;;;;;;;;;;;2.40;99.90;;;;;;8353195;28;19965;-64
2021/11/25 10:55:36;;;;;;;;;;;2.50;99.90;;;;;;8407970;28;19920;-64
2021/11/25 10:59:42;;;;;;;;;;;2.60;99.90;;;;;;8430874;28;19908;-64
2021/11/25 11:03:56;;;;;;;;;;;2.50;99.90;;;;;;8433266;28;19912;-65
2021/11/25 11:08:04;;;;;;;;;;;2.70;99.90;;;;;;8414518;28;19915;-64
2021/11/25 11:12:20;;;;;;;;;;;2.90;99.90;;;;;;8432856;28;19916;-64
2021/11/25 11:16:31;;;;;;;;;;;3.20;99.90;;;;;;8409359;28;20341;-64
2021/11/25 11:20:37;;;;;;;;;;;3.10;99.90;;;;;;8377161;28;19917;-64
2021/11/25 11:24:38;;;;;;;;;;;2.80;99.90;;;;;;8426802;28;19953;-64
2021/11/25 11:28:39;;;;;;;;;;;2.30;99.90;;;;;;8413400;28;20053;-65
2021/11/25 11:32:40;;;;;;;;;;;2.10;99.90;;;;;;8432114;28;19946;-65
2021/11/25 11:36:47;;;;;;;;;;;2.10;99.90;;;;;;8432376;28;19908;-64
2021/11/25 11:40:48;;;;;;;;;;;2.40;99.90;;;;;;8432045;28;20188;-64
2021/11/25 11:44:50;;;;;;;;;;;2.70;99.90;;;;;;8431909;28;20373;-65
2021/11/25 11:48:54;;;;;;;;;;;2.70;99.90;;;;;;8431783;28;19958;-65
2021/11/25 11:52:55;;;;;;;;;;;2.40;99.90;;;;;;8415913;28;19912;-65
2021/11/25 11:56:56;;;;;;;;;;;2.40;99.90;;;;;;8430774;28;20153;-64
2021/11/25 12:01:06;;;;;;;;;;;2.50;99.90;;;;;;8421385;28;20000;-64
2021/11/25 12:05:07;;;;;;;;;;;2.50;99.90;;;;;;8364421;28;20015;-64
2021/11/25 12:09:19;;;;;;;;;;;2.60;99.90;;;;;;8363603;28;19913;-64
2021/11/25 12:13:20;;;;;;;;;;;2.50;99.90;;;;;;8346228;28;20442;-65
2021/11/25 12:17:33;;;;;;;;;;;2.50;99.90;;;;;;8363939;28;20337;-64
2021/11/25 12:21:33;;;;;;;;;;;2.50;99.90;;;;;;8374815;28;20025;-64
2021/11/25 12:25:35;;;;;;;;;;;2.60;99.90;;;;;;8430333;28;20410;-64
2021/11/25 12:29:48;;;;;;;;;;;2.60;99.90;;;;;;8429568;28;19912;-64
2021/11/25 12:33:49;;;;;;;;;;;2.20;99.90;;;;;;8429939;28;20297;-64
2021/11/25 12:42:00;;;;;;;;;;;1.80;99.90;;;;;;8429914;28;20370;-64
2021/11/25 12:46:03;;;;;;;;;;;1.90;99.90;;;;;;8429972;28;19912;-64
2021/11/25 12:50:20;;;;;;;;;;;2.10;99.90;;;;;;8429038;28;19912;-64
2021/11/25 12:54:21;;;;;;;;;;;2.00;99.90;;;;;;8415187;28;19913;-64
2021/11/25 12:58:30;;;;;;;;;;;2.20;99.90;;;;;;8355349;28;20306;-64
2021/11/25 13:02:37;;;;;;;;;;;2.30;99.90;;;;;;8379043;28;19913;-64
2021/11/25 13:06:40;;;;;;;;;;;2.30;99.90;;;;;;8378326;28;20016;-65
2021/11/25 13:10:41;;;;;;;;;;;2.30;99.90;;;;;;8395330;28;20313;-65
2021/11/25 13:14:42;;;;;;;;;;;2.30;99.90;;;;;;8395173;28;20011;-64
2021/11/25 13:18:44;;;;;;;;;;;2.10;99.90;;;;;;8390434;28;20359;-64
2021/11/25 13:22:45;;;;;;;;;;;2.20;99.90;;;;;;8391398;28;19908;-64
2021/11/25 13:26:45;;;;;;;;;;;2.10;99.90;;;;;;8389972;28;20363;-64
2021/11/25 13:30:46;;;;;;;;;;;1.80;99.90;;;;;;8393958;28;19916;-64
2021/11/25 13:34:48;;;;;;;;;;;1.30;99.90;;;;;;8393145;28;20365;-64
2021/11/25 13:38:49;;;;;;;;;;;1.20;99.90;;;;;;8390189;28;20400;-63
2021/11/25 13:42:52;;;;;;;;;;;1.40;99.90;;;;;;8393163;28;19947;-64
2021/11/25 13:46:54;;;;;;;;;;;1.70;99.90;;;;;;8393570;28;19916;-64
2021/11/25 13:50:55;;;;;;;;;;;1.80;99.90;;;;;;8382772;28;20306;-63
2021/11/25 13:54:56;;;;;;;;;;;2.00;99.90;;;;;;8395788;28;19924;-64
2021/11/25 13:58:57;;;;;;;;;;;2.00;99.90;;;;;;8386184;28;19919;-64
2021/11/25 14:03:08;;;;;;;;;;;2.10;99.90;;;;;;8392539;28;19913;-64
2021/11/25 14:07:10;;;;;;;;;;;2.20;99.90;;;;;;8390873;28;19917;-64
2021/11/25 14:11:11;;;;;;;;;;;2.10;99.90;;;;;;8390971;28;19912;-64
2021/11/25 14:15:13;;;;;;;;;;;2.00;99.90;;;;;;8389615;28;20420;-64
2021/11/25 14:19:21;;;;;;;;;;;1.90;99.90;;;;;;8381926;28;19909;-64
2021/11/25 14:23:25;;;;;;;;;;;1.90;99.90;;;;;;8392163;28;19916;-64
2021/11/25 14:31:37;;;;;;;;;;;1.70;99.90;;;;;;8387391;28;20255;-64
2021/11/25 14:35:41;;;;;;;;;;;1.50;99.90;;;;;;8371062;28;19923;-64
2021/11/25 14:39:42;;;;;;;;;;;1.30;99.90;;;;;;8378077;28;19913;-64
2021/11/25 14:43:42;;;;;;;;;;;1.30;99.90;;;;;;8366603;28;19920;-64
2021/11/25 14:47:52;;;;;;;;;;;1.30;99.90;;;;;;8396310;28;19913;-64
2021/11/25 14:52:11;;;;;;;;;;;1.50;99.90;;;;;;8380144;28;19924;-64
2021/11/25 14:56:13;;;;;;;;;;;1.50;99.90;;;;;;8402304;28;20603;-64
2021/11/25 15:00:15;;;;;;;;;;;1.50;99.90;;;;;;8389724;28;20025;-64
2021/11/25 15:04:19;;;;;;;;;;;1.60;99.90;;;;;;8370256;28;19913;-66
2021/11/25 15:08:20;;;;;;;;;;;1.60;99.90;;;;;;8366085;28;19912;-65
2021/11/25 15:12:20;;;;;;;;;;;1.50;99.90;;;;;;8375250;28;19916;-64
2021/11/25 15:16:21;;;;;;;;;;;1.50;99.90;;;;;;8374134;28;19920;-64
2021/11/25 15:20:22;;;;;;;;;;;1.50;99.90;;;;;;8382413;28;20282;-72
2021/11/25 15:24:22;;;;;;;;;;;1.50;99.90;;;;;;8396864;28;19916;-71
2021/11/25 15:28:23;;;;;;;;;;;1.40;99.90;;;;;;8391675;28;19916;-72
2021/11/25 15:32:24;;;;;;;;;;;1.40;99.90;;;;;;8391086;28;20385;-72
2021/11/25 15:36:25;;;;;;;;;;;1.40;99.90;;;;;;8383890;28;19958;-64
2021/11/25 15:40:25;;;;;;;;;;;1.40;99.90;;;;;;8373133;28;19917;-63
2021/11/25 15:44:26;;;;;;;;;;;1.30;99.90;;;;;;8392761;28;20400;-65
2021/11/25 15:48:27;;;;;;;;;;;1.30;99.90;;;;;;8379797;28;20011;-66
2021/11/25 15:52:27;;;;;;;;;;;1.40;99.90;;;;;;8380910;28;20343;-65
2021/11/25 15:56:28;;;;;;;;;;;1.40;99.90;;;;;;8433386;22;20445;-66
2021/11/25 16:00:29;;;;;;;;;;;1.30;99.90;;;;;;8351080;28;20018;-65
2021/11/25 16:04:29;;;;;;;;;;;1.30;99.90;;;;;;8348700;28;19909;-66
2021/11/25 16:08:30;;;;;;;;;;;1.30;99.90;;;;;;8351835;28;19913;-65
2021/11/25 16:12:31;;;;;;;;;;;1.20;99.90;;;;;;8348658;28;20331;-65
2021/11/25 16:16:41;;;;;;;;;;;1.20;99.90;;;;;;8341628;28;19948;-64
2021/11/25 16:20:42;;;;;;;;;;;1.10;99.90;;;;;;8326638;28;20381;-65
2021/11/25 16:24:42;;;;;;;;;;;1.20;99.90;;;;;;8312893;28;20005;-65
2021/11/25 16:28:43;;;;;;;;;;;1.20;99.90;;;;;;8320162;28;19913;-64
2021/11/25 16:32:43;;;;;;;;;;;1.20;99.90;;;;;;8298089;28;19917;-65
2021/11/25 16:36:44;;;;;;;;;;;1.10;99.90;;;;;;8315680;28;20330;-65
2021/11/25 16:40:45;;;;;;;;;;;1.40;99.90;;;;;;8313416;28;19914;-67
2021/11/25 16:44:52;;;;;;;;;;;1.40;99.90;;;;;;8329350;28;20013;-66
2021/11/25 16:48:52;;;;;;;;;;;1.20;99.90;;;;;;8313203;28;19928;-66
2021/11/25 16:52:53;;;;;;;;;;;1.20;99.90;;;;;;8312971;28;19921;-66
2021/11/25 16:56:54;;;;;;;;;;;1.10;99.90;;;;;;8307256;28;20299;-66
2021/11/25 17:00:54;;;;;;;;;;;1.20;99.90;;;;;;8322280;28;19923;-66
2021/11/25 17:04:58;;;;;;;;;;;1.20;99.90;;;;;;8320243;28;19924;-66
2021/11/25 17:08:58;;;;;;;;;;;1.10;99.90;;;;;;8304277;28;20387;-66
2021/11/25 17:12:59;;;;;;;;;;;1.00;99.90;;;;;;8304531;28;19924;-66
2021/11/25 17:17:00;;;;;;;;;;;0.90;99.90;;;;;;8331600;28;19959;-66
2021/11/25 17:21:03;;;;;;;;;;;0.90;99.90;;;;;;8342257;28;19920;-66
2021/11/25 17:25:04;;;;;;;;;;;0.80;99.90;;;;;;8334370;28;19940;-66
2021/11/25 17:29:04;;;;;;;;;;;0.80;99.90;;;;;;8331481;28;19921;-66
2021/11/25 17:33:05;;;;;;;;;;;0.90;99.90;;;;;;8335448;28;20339;-66
2021/11/25 17:37:06;;;;;;;;;;;0.80;99.90;;;;;;8314394;28;20426;-66
2021/11/25 17:41:06;;;;;;;;;;;0.80;99.90;;;;;;8319810;28;19913;-66
2021/11/25 17:45:07;;;;;;;;;;;0.80;99.90;;;;;;8319731;28;19917;-66
2021/11/25 17:58:24;;;;;;;;;;;1.00;99.90;;;;;;8319576;28;19974;-66
2021/11/25 18:02:24;;;;;;;;;;;1.00;99.90;;;;;;8316820;28;20288;-66
2021/11/25 18:06:25;;;;;;;;;;;1.10;99.90;;;;;;8333669;28;19983;-66
2021/11/25 18:15:04;;;;;;;;;;;1.00;99.90;;;;;;8308033;28;19926;-66
2021/11/25 18:19:05;;;;;;;;;;;1.20;99.90;;;;;;8312226;28;20280;-66
2021/11/25 18:23:05;;;;;;;;;;;1.30;99.90;;;;;;8327655;28;20004;-66
2021/11/25 18:27:07;;;;;;;;;;;1.30;99.90;;;;;;8332466;28;20366;-66
2021/11/25 18:31:08;;;;;;;;;;;1.20;99.90;;;;;;8336772;28;19925;-66
2021/11/25 18:35:12;;;;;;;;;;;1.10;99.90;;;;;;8320330;28;19974;-66
2021/11/25 18:39:14;;;;;;;;;;;1.20;99.90;;;;;;8331370;28;19920;-66
2021/11/25 18:43:15;;;;;;;;;;;1.10;99.90;;;;;;8329430;28;19957;-66
2021/11/25 18:47:17;;;;;;;;;;;1.20;99.90;;;;;;8318103;28;19917;-69
2021/11/25 18:51:18;;;;;;;;;;;1.30;99.90;;;;;;8315440;28;19921;-67
2021/11/25 19:04:35;;;;;;;;;;;1.00;99.90;;;;;;8332562;28;19974;-66
2021/11/25 19:08:36;;;;;;;;;;;1.00;99.90;;;;;;8323339;28;19924;-67
2021/11/25 19:12:37;;;;;;;;;;;1.00;99.90;;;;;;8334726;28;19920;-67
2021/11/25 19:16:37;;;;;;;;;;;1.00;99.90;;;;;;8338954;28;19913;-67
2021/11/25 19:20:38;;;;;;;;;;;1.10;99.90;;;;;;8341952;28;19920;-67
2021/11/25 19:24:38;;;;;;;;;;;1.00;99.90;;;;;;8345389;28;19913;-67
2021/11/25 19:28:39;;;;;;;;;;;1.20;99.90;;;;;;8342285;28;20354;-67
2021/11/25 19:32:40;;;;;;;;;;;1.00;99.90;;;;;;8342295;28;19913;-67
2021/11/25 19:36:40;;;;;;;;;;;1.10;99.90;;;;;;8345072;28;19917;-66
2021/11/25 19:40:41;;;;;;;;;;;1.20;99.90;;;;;;8334941;28;20287;-67
2021/11/25 19:44:41;;;;;;;;;;;1.20;99.90;;;;;;8329131;28;20295;-66
2021/11/25 19:48:42;;;;;;;;;;;1.30;99.90;;;;;;8329050;28;19936;-66
2021/11/25 19:52:43;;;;;;;;;;;1.30;99.90;;;;;;8329091;28;19935;-67
2021/11/25 19:56:44;;;;;;;;;;;1.20;99.90;;;;;;8329165;28;19917;-67
2021/11/25 20:00:44;;;;;;;;;;;1.20;99.90;;;;;;8328844;28;19909;-66
2021/11/25 20:04:45;;;;;;;;;;;1.10;99.90;;;;;;8328575;28;19913;-66
2021/11/25 20:08:45;;;;;;;;;;;1.30;99.90;;;;;;8328009;28;19913;-67
2021/11/25 20:12:48;;;;;;;;;;;1.30;99.90;;;;;;8327422;28;20391;-67
2021/11/25 20:16:50;;;;;;;;;;;1.30;99.90;;;;;;8328643;28;19913;-67
2021/11/25 20:20:50;;;;;;;;;;;1.10;99.90;;;;;;8345334;28;19916;-67
2021/11/25 20:24:51;;;;;;;;;;;1.30;99.90;;;;;;8343953;28;20294;-67
2021/11/25 20:28:51;;;;;;;;;;;1.30;99.90;;;;;;8353014;28;19909;-67
2021/11/25 20:32:52;;;;;;;;;;;1.30;99.90;;;;;;8350793;28;19966;-67
2021/11/25 20:36:53;;;;;;;;;;;1.20;99.90;;;;;;8335924;28;20015;-66
2021/11/25 20:40:53;;;;;;;;;;;1.20;99.90;;;;;;8336196;28;19913;-67
2021/11/25 20:44:54;;;;;;;;;;;1.10;99.90;;;;;;8342929;28;19956;-67
2021/11/25 20:48:55;;;;;;;;;;;1.10;99.90;;;;;;8343266;28;19909;-67
2021/11/25 20:52:57;;;;;;;;;;;1.20;99.90;;;;;;8343907;28;19958;-67
2021/11/25 20:56:58;;;;;;;;;;;1.20;99.90;;;;;;8342604;28;19935;-67
2021/11/25 21:00:59;;;;;;;;;;;1.20;99.90;;;;;;8342422;28;19909;-67
2021/11/25 21:05:00;;;;;;;;;;;1.20;99.90;;;;;;8342648;28;20378;-67
2021/11/25 21:09:00;;;;;;;;;;;1.20;99.90;;;;;;8332277;28;19913;-66
2021/11/25 21:13:02;;;;;;;;;;;1.20;99.90;;;;;;8333593;28;19912;-66
2021/11/25 21:17:02;;;;;;;;;;;1.10;99.90;;;;;;8337703;28;20377;-67
2021/11/25 21:21:03;;;;;;;;;;;1.00;99.90;;;;;;8350087;28;19924;-67
2021/11/25 21:25:05;;;;;;;;;;;1.10;99.90;;;;;;8330614;28;20002;-67
2021/11/25 21:29:08;;;;;;;;;;;1.20;99.90;;;;;;8338671;28;19947;-67
2021/11/25 21:33:11;;;;;;;;;;;1.10;99.90;;;;;;8348102;28;20666;-67
2021/11/25 21:37:13;;;;;;;;;;;1.20;99.90;;;;;;8351709;28;21460;-67
2021/11/25 21:41:14;;;;;;;;;;;1.10;99.90;;;;;;8345407;28;19928;-67
2021/11/25 21:45:15;;;;;;;;;;;1.10;99.90;;;;;;8325573;28;19956;-67
2021/11/25 21:49:15;;;;;;;;;;;1.20;99.90;;;;;;8352142;28;19920;-68
2021/11/25 21:53:17;;;;;;;;;;;1.20;99.90;;;;;;8342346;28;19920;-68
2021/11/25 21:57:18;;;;;;;;;;;1.20;99.90;;;;;;8378651;23;19928;-67
2021/11/25 22:01:18;;;;;;;;;;;1.10;99.90;;;;;;8405042;28;19924;-67
2021/11/25 22:05:19;;;;;;;;;;;1.10;99.90;;;;;;8388707;28;19922;-67
2021/11/25 22:09:19;;;;;;;;;;;1.20;99.90;;;;;;8391379;28;19985;-67
2021/11/25 22:13:23;;;;;;;;;;;1.10;99.90;;;;;;8387738;28;19912;-67
2021/11/25 22:17:24;;;;;;;;;;;1.00;99.90;;;;;;8379203;28;20366;-66
2021/11/25 22:25:40;;;;;;;;;;;0.90;99.90;;;;;;8393621;28;19908;-67
2021/11/25 22:29:40;;;;;;;;;;;1.10;99.90;;;;;;8375319;28;20374;-66
2021/11/25 22:33:41;;;;;;;;;;;1.10;99.90;;;;;;8393396;28;19908;-66
2021/11/25 22:37:41;;;;;;;;;;;1.10;99.90;;;;;;8393481;28;19908;-66
2021/11/25 22:41:44;;;;;;;;;;;1.10;99.90;;;;;;8392980;28;19913;-66
2021/11/25 22:45:45;;;;;;;;;;;1.00;99.90;;;;;;8393062;28;19970;-67
2021/11/25 22:49:45;;;;;;;;;;;1.10;99.90;;;;;;8374916;28;20341;-66
2021/11/25 22:53:46;;;;;;;;;;;1.10;99.90;;;;;;8377488;28;19963;-66
2021/11/25 22:57:46;;;;;;;;;;;1.10;99.90;;;;;;8403943;28;19916;-67
2021/11/25 23:01:47;;;;;;;;;;;1.30;99.90;;;;;;8403318;28;19914;-66
2021/11/25 23:05:48;;;;;;;;;;;1.20;99.90;;;;;;8404048;28;20393;-66
2021/11/25 23:09:48;;;;;;;;;;;1.10;99.90;;;;;;8403308;28;19989;-66
2021/11/25 23:13:49;;;;;;;;;;;1.10;99.90;;;;;;8385444;28;20310;-66
2021/11/25 23:17:50;;;;;;;;;;;1.10;99.90;;;;;;8406179;28;20022;-66
2021/11/25 23:21:50;;;;;;;;;;;1.10;99.90;;;;;;8410456;28;20369;-66
2021/11/25 23:25:51;;;;;;;;;;;1.10;99.90;;;;;;8407796;28;19908;-67
2021/11/25 23:29:52;;;;;;;;;;;1.20;99.90;;;;;;8385197;28;19919;-66
2021/11/25 23:33:52;;;;;;;;;;;1.10;99.90;;;;;;8403634;28;19908;-67
2021/11/25 23:37:52;;;;;;;;;;;1.10;99.90;;;;;;8385631;28;19909;-66
2021/11/25 23:41:53;;;;;;;;;;;1.00;99.90;;;;;;8403747;28;19908;-67
2021/11/25 23:45:56;;;;;;;;;;;0.90;99.90;;;;;;8403147;28;20310;-67
2021/11/25 23:49:58;;;;;;;;;;;0.90;99.90;;;;;;8403294;28;20378;-67
2021/11/25 23:53:59;;;;;;;;;;;0.90;99.90;;;;;;8378896;28;19908;-67
2021/11/25 23:58:00;;;;;;;;;;;0.90;99.90;;;;;;8403198;28;19920;-67
